createdAt,value
2018-03-29T00:00:09.506Z,992.81
2018-03-29T00:01:09.512Z,992.75
2018-03-29T00:02:09.537Z,992.71
2018-03-29T00:03:09.513Z,992.72
2018-03-29T00:04:09.602Z,992.68
2018-03-29T00:05:09.529Z,992.70
2018-03-29T00:06:09.537Z,992.74
2018-03-29T00:07:09.540Z,992.63
2018-03-29T00:08:09.559Z,992.61
2018-03-29T00:09:09.547Z,992.60
2018-03-29T00:10:09.599Z,992.57
2018-03-29T00:11:09.593Z,992.53
2018-03-29T00:12:09.572Z,992.50
2018-03-29T00:13:09.581Z,992.51
2018-03-29T00:14:09.586Z,992.48
2018-03-29T00:15:09.639Z,992.46
2018-03-29T00:16:09.591Z,992.48
2018-03-29T00:17:09.596Z,992.48
2018-03-29T00:18:09.624Z,992.43
2018-03-29T00:19:09.632Z,992.41
2018-03-29T00:20:09.637Z,992.41
2018-03-29T00:21:09.679Z,992.35
2018-03-29T00:22:09.685Z,992.37
2018-03-29T00:23:09.681Z,992.34
2018-03-29T00:24:09.696Z,992.32
2018-03-29T00:25:09.638Z,992.31
2018-03-29T00:26:09.646Z,992.30
2018-03-29T00:27:09.654Z,992.23
2018-03-29T00:28:09.696Z,992.21
2018-03-29T00:29:09.680Z,992.23
2018-03-29T00:30:09.673Z,992.20
2018-03-29T00:31:09.680Z,992.18
2018-03-29T00:32:09.725Z,992.15
2018-03-29T00:33:09.738Z,992.14
2018-03-29T00:34:09.694Z,992.15
2018-03-29T00:35:09.744Z,992.07
2018-03-29T00:36:09.735Z,992.07
2018-03-29T00:37:09.715Z,992.09
2018-03-29T00:38:09.762Z,992.09
2018-03-29T00:39:09.793Z,992.10
2018-03-29T00:40:09.750Z,992.10
2018-03-29T00:41:09.734Z,992.12
2018-03-29T00:42:09.746Z,992.10
2018-03-29T00:43:09.756Z,992.10
2018-03-29T00:44:09.798Z,992.07
2018-03-29T00:45:09.759Z,992.04
2018-03-29T00:46:09.766Z,992.07
2018-03-29T00:47:09.773Z,992.03
2018-03-29T00:48:09.781Z,992.01
2018-03-29T00:49:09.781Z,992.01
2018-03-29T00:50:09.822Z,991.99
2018-03-29T00:51:09.809Z,992.02
2018-03-29T00:52:09.800Z,991.96
2018-03-29T00:53:09.802Z,991.93
2018-03-29T00:54:09.830Z,991.97
2018-03-29T00:55:09.815Z,991.87
2018-03-29T00:56:09.866Z,991.89
2018-03-29T00:57:09.824Z,991.90
2018-03-29T00:58:09.884Z,991.92
2018-03-29T00:59:09.877Z,991.88
2018-03-29T01:00:09.863Z,991.89
2018-03-29T01:01:09.859Z,991.87
2018-03-29T01:02:09.852Z,991.86
2018-03-29T01:03:09.939Z,991.83
2018-03-29T01:04:09.876Z,991.86
2018-03-29T01:05:09.922Z,991.80
2018-03-29T01:06:09.882Z,991.82
2018-03-29T01:07:09.893Z,991.80
2018-03-29T01:08:09.912Z,991.82
2018-03-29T01:09:09.929Z,991.77
2018-03-29T01:10:09.915Z,991.78
2018-03-29T01:11:09.962Z,991.80
2018-03-29T01:12:09.977Z,991.76
2018-03-29T01:13:09.936Z,991.78
2018-03-29T01:14:09.937Z,991.81
2018-03-29T01:15:09.963Z,991.77
2018-03-29T01:16:09.947Z,991.77
2018-03-29T01:17:09.985Z,991.80
2018-03-29T01:18:09.952Z,991.77
2018-03-29T01:19:09.989Z,991.78
2018-03-29T01:20:09.965Z,991.80
2018-03-29T01:21:10.031Z,991.76
2018-03-29T01:22:09.969Z,991.76
2018-03-29T01:23:10.015Z,991.80
2018-03-29T01:24:09.989Z,991.75
2018-03-29T01:25:09.990Z,991.73
2018-03-29T01:26:10.023Z,991.70
2018-03-29T01:27:10.078Z,991.71
2018-03-29T01:28:10.008Z,991.68
2018-03-29T01:29:10.012Z,991.69
2018-03-29T01:30:10.019Z,991.68
2018-03-29T01:31:10.057Z,991.71
2018-03-29T01:32:10.083Z,991.70
2018-03-29T01:33:10.039Z,991.74
2018-03-29T01:34:10.050Z,991.70
2018-03-29T01:35:10.089Z,991.75
2018-03-29T01:36:10.061Z,991.70
2018-03-29T01:37:10.206Z,991.69
2018-03-29T01:38:10.078Z,991.71
2018-03-29T01:39:10.133Z,991.67
2018-03-29T01:40:10.085Z,991.68
2018-03-29T01:41:10.098Z,991.66
2018-03-29T01:42:10.100Z,991.65
2018-03-29T01:43:10.096Z,991.65
2018-03-29T01:44:10.127Z,991.65
2018-03-29T01:45:10.172Z,991.68
2018-03-29T01:46:10.128Z,991.67
2018-03-29T01:47:10.126Z,991.68
2018-03-29T01:48:10.130Z,991.73
2018-03-29T01:49:10.139Z,991.70
2018-03-29T01:50:10.138Z,991.75
2018-03-29T01:51:10.212Z,991.73
2018-03-29T01:52:10.172Z,991.70
2018-03-29T01:53:10.163Z,991.71
2018-03-29T01:54:10.170Z,991.71
2018-03-29T01:55:10.186Z,991.69
2018-03-29T01:56:10.235Z,991.71
2018-03-29T01:57:10.183Z,991.72
2018-03-29T01:58:10.205Z,991.68
2018-03-29T01:59:10.198Z,991.66
2018-03-29T02:00:10.206Z,991.67
2018-03-29T02:01:10.218Z,991.65
2018-03-29T02:02:10.291Z,991.60
2018-03-29T02:03:10.234Z,991.57
2018-03-29T02:04:10.233Z,991.56
2018-03-29T02:05:10.246Z,991.53
2018-03-29T02:06:10.249Z,991.52
2018-03-29T02:07:10.257Z,991.57
2018-03-29T02:08:10.321Z,991.56
2018-03-29T02:09:10.289Z,991.62
2018-03-29T02:10:10.267Z,991.66
2018-03-29T02:11:10.292Z,991.68
2018-03-29T02:12:10.283Z,991.62
2018-03-29T02:13:10.305Z,991.55
2018-03-29T02:14:10.317Z,991.54
2018-03-29T02:15:10.311Z,991.48
2018-03-29T02:16:10.312Z,991.48
2018-03-29T02:17:10.321Z,991.50
2018-03-29T02:18:10.315Z,991.51
2018-03-29T02:19:10.356Z,991.51
2018-03-29T02:20:10.355Z,991.58
2018-03-29T02:21:10.335Z,991.58
2018-03-29T02:22:10.348Z,991.63
2018-03-29T02:23:10.363Z,991.73
2018-03-29T02:24:10.364Z,991.79
2018-03-29T02:25:10.389Z,991.83
2018-03-29T02:26:10.359Z,991.89
2018-03-29T02:27:10.487Z,991.92
2018-03-29T02:28:10.369Z,991.83
2018-03-29T02:29:10.376Z,991.86
2018-03-29T02:30:10.445Z,991.82
2018-03-29T02:31:10.391Z,991.86
2018-03-29T02:32:10.401Z,991.91
2018-03-29T02:33:10.423Z,991.99
2018-03-29T02:34:10.441Z,992.04
2018-03-29T02:35:10.479Z,992.06
2018-03-29T02:36:10.419Z,992.09
2018-03-29T02:37:10.484Z,992.10
2018-03-29T02:38:10.431Z,992.05
2018-03-29T02:39:10.486Z,992.04
2018-03-29T02:40:10.442Z,992.00
2018-03-29T02:41:10.509Z,991.97
2018-03-29T02:42:10.529Z,992.04
2018-03-29T02:43:10.467Z,991.97
2018-03-29T02:44:10.515Z,991.99
2018-03-29T02:45:10.474Z,991.97
2018-03-29T02:46:10.479Z,991.96
2018-03-29T02:47:10.503Z,991.96
2018-03-29T02:48:10.543Z,991.99
2018-03-29T02:49:10.500Z,991.97
2018-03-29T02:50:10.509Z,991.90
2018-03-29T02:51:10.515Z,991.93
2018-03-29T02:52:10.519Z,991.91
2018-03-29T02:53:10.560Z,991.88
2018-03-29T02:54:10.539Z,991.90
2018-03-29T02:55:10.599Z,991.88
2018-03-29T02:56:10.545Z,991.84
2018-03-29T02:57:10.558Z,991.87
2018-03-29T02:58:10.606Z,991.88
2018-03-29T02:59:10.616Z,991.96
2018-03-29T03:00:10.568Z,991.94
2018-03-29T03:01:10.634Z,991.94
2018-03-29T03:02:10.581Z,991.98
2018-03-29T03:03:10.595Z,991.93
2018-03-29T03:04:10.652Z,991.98
2018-03-29T03:05:10.602Z,992.04
2018-03-29T03:06:10.626Z,992.08
2018-03-29T03:07:10.618Z,992.10
2018-03-29T03:08:10.632Z,992.12
2018-03-29T03:09:10.685Z,992.15
2018-03-29T03:10:10.631Z,992.09
2018-03-29T03:11:10.681Z,992.07
2018-03-29T03:12:10.648Z,992.04
2018-03-29T03:13:10.669Z,992.10
2018-03-29T03:14:10.716Z,992.11
2018-03-29T03:15:10.668Z,992.11
2018-03-29T03:16:10.672Z,992.11
2018-03-29T03:17:10.906Z,992.14
2018-03-29T03:18:10.722Z,992.13
2018-03-29T03:19:10.734Z,992.13
2018-03-29T03:20:10.700Z,992.23
2018-03-29T03:21:10.774Z,992.26
2018-03-29T03:22:10.714Z,992.20
2018-03-29T03:23:10.769Z,992.25
2018-03-29T03:24:10.726Z,992.28
2018-03-29T03:25:10.734Z,992.31
2018-03-29T03:26:10.800Z,992.29
2018-03-29T03:27:10.744Z,992.32
2018-03-29T03:28:10.754Z,992.30
2018-03-29T03:29:10.760Z,992.32
2018-03-29T03:30:10.777Z,992.35
2018-03-29T03:31:10.787Z,992.37
2018-03-29T03:32:10.848Z,992.36
2018-03-29T03:33:10.787Z,992.42
2018-03-29T03:34:10.795Z,992.48
2018-03-29T03:35:10.803Z,992.45
2018-03-29T03:36:10.816Z,992.43
2018-03-29T03:37:10.840Z,992.49
2018-03-29T03:38:10.878Z,992.47
2018-03-29T03:39:10.825Z,992.50
2018-03-29T03:40:10.837Z,992.53
2018-03-29T03:41:10.890Z,992.57
2018-03-29T03:42:10.845Z,992.54
2018-03-29T03:43:10.852Z,992.58
2018-03-29T03:44:10.898Z,992.57
2018-03-29T03:45:11.084Z,992.64
2018-03-29T03:46:10.879Z,992.61
2018-03-29T03:47:10.909Z,992.68
2018-03-29T03:48:10.886Z,992.67
2018-03-29T03:49:10.897Z,992.72
2018-03-29T03:50:10.898Z,992.66
2018-03-29T03:51:10.904Z,992.67
2018-03-29T03:52:10.918Z,992.71
2018-03-29T03:53:10.949Z,992.69
2018-03-29T03:54:11.026Z,992.67
2018-03-29T03:55:10.926Z,992.76
2018-03-29T03:56:11.071Z,992.69
2018-03-29T03:57:10.934Z,992.68
2018-03-29T03:58:11.018Z,992.76
2018-03-29T03:59:10.993Z,992.74
2018-03-29T04:00:10.967Z,992.75
2018-03-29T04:01:10.969Z,992.81
2018-03-29T04:02:10.980Z,992.82
2018-03-29T04:03:10.992Z,992.80
2018-03-29T04:04:11.022Z,992.84
2018-03-29T04:05:10.993Z,992.90
2018-03-29T04:06:11.046Z,992.84
2018-03-29T04:07:11.093Z,992.89
2018-03-29T04:08:11.335Z,992.91
2018-03-29T04:09:11.017Z,993.00
2018-03-29T04:10:11.042Z,992.93
2018-03-29T04:11:11.044Z,992.89
2018-03-29T04:12:11.085Z,992.91
2018-03-29T04:13:11.103Z,992.94
2018-03-29T04:14:11.057Z,993.21
2018-03-29T04:15:11.060Z,992.95
2018-03-29T04:16:11.111Z,993.02
2018-03-29T04:17:11.136Z,992.99
2018-03-29T04:18:11.215Z,993.09
2018-03-29T04:19:11.088Z,993.07
2018-03-29T04:20:11.094Z,993.05
2018-03-29T04:21:11.115Z,993.07
2018-03-29T04:22:11.108Z,993.15
2018-03-29T04:23:11.142Z,993.22
2018-03-29T04:24:11.158Z,993.16
2018-03-29T04:25:11.131Z,993.25
2018-03-29T04:26:11.143Z,993.25
2018-03-29T04:27:11.219Z,993.14
2018-03-29T04:28:11.146Z,993.20
2018-03-29T04:29:11.190Z,993.22
2018-03-29T04:30:11.172Z,993.19
2018-03-29T04:31:11.168Z,993.25
2018-03-29T04:32:11.185Z,993.30
2018-03-29T04:33:11.183Z,993.40
2018-03-29T04:34:11.178Z,993.31
2018-03-29T04:35:11.282Z,993.45
2018-03-29T04:36:11.190Z,993.33
2018-03-29T04:37:11.210Z,993.37
2018-03-29T04:38:11.295Z,993.48
2018-03-29T04:39:11.221Z,993.53
2018-03-29T04:40:11.232Z,993.55
2018-03-29T04:41:11.260Z,993.55
2018-03-29T04:42:11.286Z,993.59
2018-03-29T04:43:11.239Z,993.61
2018-03-29T04:44:11.313Z,993.59
2018-03-29T04:45:11.256Z,993.59
2018-03-29T04:46:11.399Z,993.63
2018-03-29T04:47:11.264Z,993.68
2018-03-29T04:48:11.309Z,993.73
2018-03-29T04:49:11.373Z,993.72
2018-03-29T04:50:11.288Z,993.84
2018-03-29T04:51:11.292Z,993.89
2018-03-29T04:52:11.299Z,993.83
2018-03-29T04:53:11.363Z,993.88
2018-03-29T04:54:11.323Z,993.91
2018-03-29T04:55:11.313Z,993.93
2018-03-29T04:56:11.338Z,993.96
2018-03-29T04:57:11.333Z,993.92
2018-03-29T04:58:11.333Z,993.97
2018-03-29T04:59:11.377Z,993.97
2018-03-29T05:00:11.376Z,994.02
2018-03-29T05:01:11.365Z,993.97
2018-03-29T05:02:11.370Z,994.04
2018-03-29T05:03:11.386Z,994.04
2018-03-29T05:04:11.435Z,994.08
2018-03-29T05:05:11.422Z,994.14
2018-03-29T05:06:11.383Z,994.15
2018-03-29T05:07:11.436Z,994.19
2018-03-29T05:08:11.411Z,994.18
2018-03-29T05:09:11.409Z,994.23
2018-03-29T05:10:11.445Z,994.23
2018-03-29T05:11:11.436Z,994.33
2018-03-29T05:12:11.427Z,994.27
2018-03-29T05:13:11.508Z,994.15
2018-03-29T05:14:11.452Z,994.32
2018-03-29T05:15:11.483Z,994.32
2018-03-29T05:16:11.453Z,994.37
2018-03-29T05:17:11.464Z,994.33
2018-03-29T05:18:11.506Z,994.38
2018-03-29T05:19:11.476Z,994.37
2018-03-29T05:20:11.559Z,994.33
2018-03-29T05:21:11.487Z,994.40
2018-03-29T05:22:11.495Z,994.36
2018-03-29T05:23:11.505Z,994.38
2018-03-29T05:24:11.500Z,994.45
2018-03-29T05:25:11.536Z,994.37
2018-03-29T05:26:11.567Z,994.47
2018-03-29T05:27:11.540Z,994.58
2018-03-29T05:28:11.539Z,994.45
2018-03-29T05:29:11.598Z,994.53
2018-03-29T05:30:11.551Z,994.59
2018-03-29T05:31:11.552Z,994.46
2018-03-29T05:32:11.586Z,994.52
2018-03-29T05:33:11.561Z,994.55
2018-03-29T05:34:11.578Z,994.64
2018-03-29T05:35:11.612Z,994.65
2018-03-29T05:36:11.594Z,994.70
2018-03-29T05:37:11.621Z,994.52
2018-03-29T05:38:11.637Z,994.73
2018-03-29T05:39:11.603Z,994.81
2018-03-29T05:40:11.668Z,994.72
2018-03-29T05:41:11.616Z,994.78
2018-03-29T05:42:11.655Z,994.84
2018-03-29T05:43:11.651Z,994.75
2018-03-29T05:44:11.631Z,995.04
2018-03-29T05:45:11.722Z,994.87
2018-03-29T05:46:11.670Z,994.93
2018-03-29T05:47:11.652Z,994.87
2018-03-29T05:48:11.701Z,994.81
2018-03-29T05:49:11.665Z,994.90
2018-03-29T05:50:11.698Z,994.89
2018-03-29T05:51:11.687Z,994.90
2018-03-29T05:52:11.703Z,994.90
2018-03-29T05:53:11.698Z,995.00
2018-03-29T05:54:11.753Z,995.02
2018-03-29T05:55:11.702Z,995.03
2018-03-29T05:56:11.722Z,995.05
2018-03-29T05:57:11.722Z,995.11
2018-03-29T05:58:11.773Z,995.04
2018-03-29T05:59:11.746Z,995.06
2018-03-29T06:00:11.809Z,995.06
2018-03-29T06:01:11.762Z,995.13
2018-03-29T06:02:11.760Z,995.08
2018-03-29T06:03:11.831Z,995.15
2018-03-29T06:04:11.781Z,995.16
2018-03-29T06:05:11.765Z,995.18
2018-03-29T06:06:11.857Z,995.29
2018-03-29T06:07:11.813Z,995.23
2018-03-29T06:08:11.802Z,995.23
2018-03-29T06:09:11.805Z,995.23
2018-03-29T06:10:11.820Z,995.19
2018-03-29T06:11:11.853Z,995.23
2018-03-29T06:12:11.814Z,995.27
2018-03-29T06:13:11.819Z,995.22
2018-03-29T06:14:11.957Z,995.27
2018-03-29T06:15:11.884Z,995.26
2018-03-29T06:16:11.839Z,995.24
2018-03-29T06:17:11.873Z,995.27
2018-03-29T06:18:11.856Z,995.30
2018-03-29T06:19:11.903Z,995.16
2018-03-29T06:20:11.932Z,995.25
2018-03-29T06:21:11.883Z,995.25
2018-03-29T06:22:11.924Z,995.30
2018-03-29T06:23:11.948Z,995.29
2018-03-29T06:24:11.900Z,995.30
2018-03-29T06:25:11.900Z,995.29
2018-03-29T06:26:11.934Z,995.27
2018-03-29T06:27:11.939Z,995.29
2018-03-29T06:28:11.945Z,995.30
2018-03-29T06:29:11.974Z,995.32
2018-03-29T06:30:11.969Z,995.37
2018-03-29T06:31:11.930Z,995.37
2018-03-29T06:32:11.936Z,995.39
2018-03-29T06:33:12.081Z,995.35
2018-03-29T06:34:11.958Z,995.39
2018-03-29T06:35:11.979Z,995.41
2018-03-29T06:36:12.015Z,995.33
2018-03-29T06:37:11.976Z,995.43
2018-03-29T06:38:11.977Z,995.48
2018-03-29T06:39:11.985Z,995.43
2018-03-29T06:40:12.018Z,995.47
2018-03-29T06:41:12.030Z,995.47
2018-03-29T06:42:12.049Z,995.44
2018-03-29T06:43:12.007Z,995.43
2018-03-29T06:44:12.018Z,995.47
2018-03-29T06:45:12.055Z,995.51
2018-03-29T06:46:12.076Z,995.55
2018-03-29T06:47:12.044Z,995.57
2018-03-29T06:48:12.086Z,995.62
2018-03-29T06:49:12.056Z,995.61
2018-03-29T06:50:12.147Z,995.62
2018-03-29T06:51:12.085Z,995.65
2018-03-29T06:52:12.123Z,995.68
2018-03-29T06:53:12.081Z,995.64
2018-03-29T06:54:12.091Z,995.70
2018-03-29T06:55:12.118Z,995.68
2018-03-29T06:56:12.133Z,995.79
2018-03-29T06:57:12.144Z,995.69
2018-03-29T06:58:12.202Z,995.71
2018-03-29T06:59:12.120Z,995.75
2018-03-29T07:00:12.129Z,995.75
2018-03-29T07:01:12.133Z,995.82
2018-03-29T07:02:12.226Z,995.76
2018-03-29T07:03:12.149Z,995.82
2018-03-29T07:04:12.160Z,995.79
2018-03-29T07:05:12.200Z,995.80
2018-03-29T07:06:12.174Z,995.84
2018-03-29T07:07:12.167Z,995.78
2018-03-29T07:08:12.217Z,995.83
2018-03-29T07:09:12.235Z,995.82
2018-03-29T07:10:12.186Z,995.73
2018-03-29T07:11:12.210Z,995.87
2018-03-29T07:12:12.202Z,995.94
2018-03-29T07:13:12.252Z,995.87
2018-03-29T07:14:12.211Z,995.88
2018-03-29T07:15:12.229Z,995.93
2018-03-29T07:16:12.254Z,995.97
2018-03-29T07:17:12.235Z,995.93
2018-03-29T07:18:12.257Z,995.95
2018-03-29T07:19:12.312Z,995.98
2018-03-29T07:20:12.249Z,996.05
2018-03-29T07:21:47.795Z,996.04
2018-03-29T07:22:12.264Z,996.01
2018-03-29T07:23:12.286Z,996.10
2018-03-29T07:24:12.280Z,996.13
2018-03-29T07:25:12.323Z,996.09
2018-03-29T07:26:12.290Z,996.12
2018-03-29T07:27:12.310Z,996.15
2018-03-29T07:28:12.310Z,996.17
2018-03-29T07:29:12.321Z,996.20
2018-03-29T07:30:12.354Z,996.17
2018-03-29T07:31:12.373Z,996.12
2018-03-29T07:32:12.336Z,996.21
2018-03-29T07:33:12.339Z,996.17
2018-03-29T18:12:51.375Z,1001.25
2018-03-29T18:13:51.331Z,1001.29
2018-03-29T18:14:51.350Z,1001.29
2018-03-29T18:15:51.382Z,1001.30
2018-03-29T18:16:51.350Z,1001.34
2018-03-29T18:17:51.373Z,1001.36
2018-03-29T18:18:51.520Z,1001.34
2018-03-29T18:19:51.399Z,1001.38
2018-03-29T18:20:51.397Z,1001.35
2018-03-29T18:21:51.428Z,1001.38
2018-03-29T18:22:51.413Z,1001.37
2018-03-29T18:23:51.402Z,1001.42
2018-03-29T18:24:51.501Z,1001.42
2018-03-29T18:25:51.459Z,1001.41
2018-03-29T18:26:51.467Z,1001.46
2018-03-29T18:27:51.470Z,1001.43
2018-03-29T18:28:51.437Z,1001.46
2018-03-29T18:29:51.471Z,1001.47
2018-03-29T18:30:51.458Z,1001.49
2018-03-29T18:31:51.484Z,1001.50
2018-03-29T18:32:51.490Z,1001.52
2018-03-29T18:33:52.418Z,1001.50
2018-03-29T18:34:51.511Z,1001.53
2018-03-29T18:35:51.494Z,1001.52
2018-03-29T18:36:51.506Z,1001.53
2018-03-29T18:37:51.527Z,1001.52
2018-03-29T18:38:51.557Z,1001.54
2018-03-29T18:39:51.535Z,1001.52
2018-03-29T18:40:51.532Z,1001.55
2018-03-29T18:41:51.537Z,1001.54
2018-03-29T18:42:51.563Z,1001.58
2018-03-29T18:43:51.627Z,1001.53
2018-03-29T18:44:51.606Z,1001.55
2018-03-29T18:45:51.616Z,1001.58
2018-03-29T18:46:51.582Z,1001.60
2018-03-29T18:47:51.624Z,1001.64
2018-03-29T18:48:51.760Z,1001.63
2018-03-29T18:49:51.624Z,1001.65
2018-03-29T18:50:51.621Z,1001.65
2018-03-29T18:51:51.632Z,1001.65
2018-03-29T18:52:51.630Z,1001.67
2018-03-29T18:53:51.637Z,1001.66
2018-03-29T18:54:51.795Z,1001.68
2018-03-29T18:55:51.646Z,1001.62
2018-03-29T18:56:51.661Z,1001.65
2018-03-29T18:57:51.662Z,1001.66
2018-03-29T18:58:51.671Z,1001.63
2018-03-29T18:59:51.689Z,1001.63
2018-03-29T19:00:51.814Z,1001.65
2018-03-29T19:01:51.710Z,1001.67
2018-03-29T19:02:51.708Z,1001.70
2018-03-29T19:03:51.721Z,1001.71
2018-03-29T19:04:51.766Z,1001.69
2018-03-29T19:05:51.734Z,1001.72
2018-03-29T19:06:51.762Z,1001.72
2018-03-29T19:07:51.765Z,1001.72
2018-03-29T19:08:51.758Z,1001.72
2018-03-29T19:09:51.854Z,1001.75
2018-03-29T19:10:51.911Z,1001.78
2018-03-29T19:11:51.779Z,1001.79
2018-03-29T19:12:51.787Z,1001.79
2018-03-29T19:13:51.838Z,1001.83
2018-03-29T19:14:51.865Z,1001.82
2018-03-29T19:15:51.975Z,1001.85
2018-03-29T19:16:51.940Z,1001.89
2018-03-29T19:17:51.819Z,1001.93
2018-03-29T19:18:51.830Z,1001.89
2018-03-29T19:19:51.834Z,1001.87
2018-03-29T19:20:52.035Z,1001.94
2018-03-29T19:21:52.002Z,1001.92
2018-03-29T19:22:51.862Z,1001.94
2018-03-29T19:23:51.873Z,1001.97
2018-03-29T19:24:51.909Z,1001.97
2018-03-29T19:25:51.900Z,1001.93
2018-03-29T19:26:51.943Z,1001.94
2018-03-29T19:27:51.906Z,1001.98
2018-03-29T19:28:51.918Z,1001.96
2018-03-29T19:29:51.917Z,1001.98
2018-03-29T19:30:51.939Z,1001.99
2018-03-29T19:31:51.938Z,1001.95
2018-03-29T19:32:51.993Z,1001.99
2018-03-29T19:33:51.959Z,1001.98
2018-03-29T19:34:51.958Z,1002.01
2018-03-29T19:35:51.970Z,1002.02
2018-03-29T19:36:52.013Z,1002.01
2018-03-29T19:37:51.992Z,1002.00
2018-03-29T19:38:52.071Z,1002.02
2018-03-29T19:39:51.997Z,1001.98
2018-03-29T19:40:51.998Z,1001.93
2018-03-29T19:41:52.009Z,1001.90
2018-03-29T19:42:52.084Z,1001.85
2018-03-29T19:43:52.021Z,1001.83
2018-03-29T19:44:52.050Z,1001.82
2018-03-29T19:45:52.149Z,1001.90
2018-03-29T19:46:52.044Z,1001.97
2018-03-29T19:47:52.070Z,1001.99
2018-03-29T19:48:52.135Z,1001.99
2018-03-29T19:49:52.083Z,1001.99
2018-03-29T19:50:52.121Z,1002.04
2018-03-29T19:51:52.094Z,1002.03
2018-03-29T19:52:52.098Z,1002.02
2018-03-29T19:53:52.121Z,1002.03
2018-03-29T19:54:52.138Z,1002.07
2018-03-29T19:55:52.140Z,1002.07
2018-03-29T19:56:52.161Z,1002.05
2018-03-29T19:57:52.142Z,1002.07
2018-03-29T19:58:52.140Z,1002.09
2018-03-29T19:59:52.154Z,1002.08
2018-03-29T20:00:52.188Z,1002.08
2018-03-29T20:01:52.195Z,1002.12
2018-03-29T20:02:52.177Z,1002.12
2018-03-29T20:03:52.179Z,1002.10
2018-03-29T20:04:52.197Z,1002.10
2018-03-29T20:05:52.193Z,1002.12
2018-03-29T20:06:52.262Z,1002.13
2018-03-29T20:07:52.214Z,1002.11
2018-03-29T20:08:52.236Z,1002.13
2018-03-29T20:09:52.238Z,1002.12
2018-03-29T20:10:52.246Z,1002.12
2018-03-29T20:11:52.251Z,1002.15
2018-03-29T20:12:52.304Z,1002.11
2018-03-29T20:13:52.264Z,1002.12
2018-03-29T20:14:52.267Z,1002.11
2018-03-29T20:15:52.280Z,1002.11
2018-03-29T20:16:52.333Z,1002.12
2018-03-29T20:17:52.295Z,1002.13
2018-03-29T20:18:52.336Z,1002.16
2018-03-29T20:19:52.308Z,1002.13
2018-03-29T20:20:52.316Z,1002.18
2018-03-29T20:21:52.328Z,1002.19
2018-03-29T20:22:52.331Z,1002.25
2018-03-29T20:23:52.388Z,1002.25
2018-03-29T20:24:52.354Z,1002.37
2018-03-29T20:25:52.345Z,1002.34
2018-03-29T20:26:52.391Z,1002.30
2018-03-29T20:27:52.363Z,1002.39
2018-03-29T20:28:52.405Z,1002.41
2018-03-29T20:29:52.416Z,1002.45
2018-03-29T20:30:52.389Z,1002.41
2018-03-29T20:31:52.399Z,1002.44
2018-03-29T20:32:52.410Z,1002.37
2018-03-29T20:33:52.408Z,1002.29
2018-03-29T20:34:52.489Z,1002.28
2018-03-29T20:35:52.423Z,1002.32
2018-03-29T20:36:52.444Z,1002.39
2018-03-29T20:37:52.441Z,1002.39
2018-03-29T20:38:52.459Z,1002.43
2018-03-29T20:39:52.451Z,1002.42
2018-03-29T20:40:52.553Z,1002.44
2018-03-29T20:41:52.487Z,1002.42
2018-03-29T20:42:52.491Z,1002.49
2018-03-29T20:43:52.494Z,1002.47
2018-03-29T20:44:52.506Z,1002.49
2018-03-29T20:45:52.551Z,1002.44
2018-03-29T20:46:52.537Z,1002.48
2018-03-29T20:47:52.520Z,1002.49
2018-03-29T20:48:52.535Z,1002.49
2018-03-29T20:49:52.553Z,1002.52
2018-03-29T20:50:52.568Z,1002.52
2018-03-29T20:51:52.591Z,1002.58
2018-03-29T20:52:52.577Z,1002.58
2018-03-29T20:53:52.561Z,1002.58
2018-03-29T20:54:52.592Z,1002.58
2018-03-29T20:55:52.599Z,1002.60
2018-03-29T20:56:52.624Z,1002.59
2018-03-29T20:57:52.642Z,1002.58
2018-03-29T20:58:52.619Z,1002.60
2018-03-29T20:59:52.622Z,1002.59
2018-03-29T21:00:52.629Z,1002.59
2018-03-29T21:01:52.679Z,1002.59
2018-03-29T21:02:52.829Z,1002.57
2018-03-29T21:03:52.662Z,1002.58
2018-03-29T21:04:52.665Z,1002.56
2018-03-29T21:05:52.671Z,1002.59
2018-03-29T21:06:52.675Z,1002.61
2018-03-29T21:07:52.674Z,1002.62
2018-03-29T21:08:52.714Z,1002.64
2018-03-29T21:09:52.691Z,1002.70
2018-03-29T21:10:52.710Z,1002.67
2018-03-29T21:11:52.705Z,1002.69
2018-03-29T21:12:52.724Z,1002.73
2018-03-29T21:13:52.771Z,1002.73
2018-03-29T21:14:52.725Z,1002.71
2018-03-29T21:15:52.755Z,1002.70
2018-03-29T21:16:52.752Z,1002.72
2018-03-29T21:17:52.771Z,1002.71
2018-03-29T21:18:52.802Z,1002.67
2018-03-29T21:19:52.808Z,1002.69
2018-03-29T21:20:52.777Z,1002.73
2018-03-29T21:21:52.777Z,1002.76
2018-03-29T21:22:52.799Z,1002.78
2018-03-29T21:23:52.851Z,1002.77
2018-03-29T21:24:52.798Z,1002.76
2018-03-29T21:25:52.810Z,1002.77
2018-03-29T21:26:52.862Z,1002.76
2018-03-29T21:27:52.831Z,1002.81
2018-03-29T21:28:52.840Z,1002.76
2018-03-29T21:29:52.859Z,1002.77
2018-03-29T21:30:52.863Z,1002.80
2018-03-29T21:31:52.854Z,1002.80
2018-03-29T21:32:52.943Z,1002.77
2018-03-29T21:33:52.888Z,1002.81
2018-03-29T21:34:52.893Z,1002.77
2018-03-29T21:35:52.913Z,1002.82
2018-03-29T21:36:52.910Z,1002.78
2018-03-29T21:37:52.950Z,1002.82
2018-03-29T21:38:52.909Z,1002.82
2018-03-29T21:39:53.098Z,1002.86
2018-03-29T21:40:52.945Z,1002.85
2018-03-29T21:41:52.949Z,1002.85
2018-03-29T21:42:53.066Z,1002.88
2018-03-29T21:43:53.019Z,1002.82
2018-03-29T21:44:52.955Z,1002.83
2018-03-29T21:45:52.970Z,1002.84
2018-03-29T21:46:52.977Z,1002.83
2018-03-29T21:47:52.986Z,1002.85
2018-03-29T21:48:53.038Z,1002.84
2018-03-29T21:49:52.999Z,1002.85
2018-03-29T21:50:53.020Z,1002.84
2018-03-29T21:51:53.015Z,1002.87
2018-03-29T21:52:53.124Z,1002.90
2018-03-29T21:53:53.036Z,1002.90
2018-03-29T21:54:53.119Z,1002.91
2018-03-29T21:55:53.048Z,1002.92
2018-03-29T21:56:53.151Z,1002.90
2018-03-29T21:57:53.060Z,1002.88
2018-03-29T21:58:53.068Z,1002.92
2018-03-29T21:59:53.115Z,1002.89
2018-03-29T22:00:53.080Z,1002.93
2018-03-29T22:01:53.148Z,1002.93
2018-03-29T22:02:53.098Z,1002.96
2018-03-29T22:03:53.103Z,1002.98
2018-03-29T22:04:53.148Z,1002.97
2018-03-29T22:05:53.376Z,1002.98
2018-03-29T22:06:53.142Z,1002.96
2018-03-29T22:07:53.132Z,1002.94
2018-03-29T22:08:53.180Z,1002.95
2018-03-29T22:09:53.144Z,1002.96
2018-03-29T22:10:53.150Z,1002.98
2018-03-29T22:11:53.166Z,1003.02
2018-03-29T22:12:53.187Z,1003.04
2018-03-29T22:13:53.211Z,1003.04
2018-03-29T22:14:53.227Z,1003.02
2018-03-29T22:15:53.189Z,1003.04
2018-03-29T22:16:53.203Z,1003.06
2018-03-29T22:17:53.205Z,1003.06
2018-03-29T22:18:53.268Z,1003.12
2018-03-29T22:19:53.219Z,1003.11
2018-03-29T22:20:53.227Z,1003.15
2018-03-29T22:21:53.231Z,1003.13
2018-03-29T22:22:53.245Z,1003.16
2018-03-29T22:23:53.250Z,1003.17
2018-03-29T22:24:53.297Z,1003.20
2018-03-29T22:25:53.290Z,1003.21
2018-03-29T22:26:53.276Z,1003.22
2018-03-29T22:27:53.319Z,1003.17
2018-03-29T22:28:53.291Z,1003.15
2018-03-29T22:29:53.311Z,1003.14
2018-03-29T22:30:53.340Z,1003.15
2018-03-29T22:31:53.332Z,1003.15
2018-03-29T22:32:53.340Z,1003.12
2018-03-29T22:33:53.404Z,1003.09
2018-03-29T22:34:53.372Z,1003.10
2018-03-29T22:35:53.378Z,1003.11
2018-03-29T22:36:53.366Z,1003.10
2018-03-29T22:37:53.362Z,1003.09
2018-03-29T22:38:53.408Z,1003.09
2018-03-29T22:39:53.385Z,1003.08
2018-03-29T22:40:53.395Z,1003.11
2018-03-29T22:41:53.408Z,1003.15
2018-03-29T22:42:53.401Z,1003.15
2018-03-29T22:43:53.420Z,1003.19
2018-03-29T22:44:53.443Z,1003.23
2018-03-29T22:45:53.429Z,1003.23
2018-03-29T22:46:53.457Z,1003.22
2018-03-29T22:47:53.422Z,1003.21
2018-03-29T22:48:53.444Z,1003.22
2018-03-29T22:49:53.469Z,1003.17
2018-03-29T22:50:53.484Z,1003.18
2018-03-29T22:51:53.472Z,1003.16
2018-03-29T22:52:53.498Z,1003.11
2018-03-29T22:53:53.523Z,1003.15
2018-03-29T22:54:53.512Z,1003.18
2018-03-29T22:55:53.492Z,1003.15
2018-03-29T22:56:53.504Z,1003.20
2018-03-29T22:57:53.535Z,1003.20